Time;durP1;ratioP1;P1;durP2;ratioP2;P2;SDS_P1;SDS_P2;PMS_P1;PMS_P2;Temp;Humidity;BMP_temperature;BMP_pressure;BME280_temperature;BME280_humidity;BME280_pressure;Samples;Min_cycle;Max_cycle;Signal;HPM_P1;HPM_P2
2023/03/05 00:01:34;;;;;;;15.23;9.25;;;;;6.40;98884.00;;;;4932841;29;20080;-62
2023/03/05 00:04:02;;;;;;;15.65;8.50;;;;;6.40;98886.00;;;;4918967;29;20417;-62
2023/03/05 00:06:30;;;;;;;17.08;9.57;;;;;6.30;98891.00;;;;4918701;29;20048;-62
2023/03/05 00:08:57;;;;;;;13.65;8.52;;;;;6.30;98877.00;;;;4918573;29;20087;-63
2023/03/05 00:11:28;;;;;;;16.20;8.52;;;;;6.20;98886.00;;;;4917598;29;20482;-61
2023/03/05 00:13:56;;;;;;;16.00;8.82;;;;;6.20;98888.00;;;;4917108;29;20059;-62
2023/03/05 00:16:25;;;;;;;17.02;8.60;;;;;6.20;98877.00;;;;4917286;29;20088;-63
2023/03/05 00:18:53;;;;;;;14.98;8.95;;;;;6.20;98882.00;;;;4919261;29;20048;-63
2023/03/05 00:21:30;;;;;;;15.23;9.57;;;;;6.20;98886.00;;;;4918117;29;20048;-62
2023/03/05 00:24:00;;;;;;;15.48;8.63;;;;;6.20;98879.00;;;;4918642;29;20103;-61
2023/03/05 00:26:27;;;;;;;14.68;8.25;;;;;6.10;98867.00;;;;4902269;29;20056;-63
2023/03/05 00:28:56;;;;;;;13.80;8.75;;;;;6.10;98875.00;;;;4918613;29;20073;-63
2023/03/05 00:31:28;;;;;;;18.90;9.45;;;;;6.20;98869.00;;;;4918032;29;20048;-62
2023/03/05 00:33:58;;;;;;;17.88;10.20;;;;;6.20;98867.00;;;;4932912;29;20062;-62
2023/03/05 00:36:25;;;;;;;15.70;9.02;;;;;6.30;98863.00;;;;4932859;29;20051;-62
2023/03/05 00:38:52;;;;;;;14.98;9.13;;;;;6.30;98859.00;;;;4918564;29;20048;-63
2023/03/05 00:41:18;;;;;;;21.05;9.32;;;;;6.20;98867.00;;;;4916727;29;20048;-63
2023/03/05 00:43:45;;;;;;;17.80;8.82;;;;;6.30;98860.00;;;;4918867;29;20158;-62
2023/03/05 00:46:12;;;;;;;16.02;8.50;;;;;6.30;98857.00;;;;4932838;29;20079;-63
2023/03/05 00:48:40;;;;;;;14.38;8.05;;;;;6.20;98842.00;;;;4918354;29;20054;-62
2023/03/05 00:51:08;;;;;;;13.25;8.30;;;;;6.20;98850.00;;;;4932023;29;20497;-62
2023/03/05 00:53:34;;;;;;;16.60;8.95;;;;;6.20;98848.00;;;;4900997;29;20509;-62
2023/03/05 00:56:01;;;;;;;16.25;8.57;;;;;6.20;98830.00;;;;4916723;29;20448;-61
2023/03/05 00:58:28;;;;;;;13.57;8.02;;;;;6.20;98833.00;;;;4932346;29;20056;-62
2023/03/05 01:00:58;;;;;;;16.67;8.77;;;;;6.20;98821.00;;;;4917240;29;20035;-63
2023/03/05 01:03:26;;;;;;;13.93;8.48;;;;;6.30;98831.00;;;;4916434;29;20540;-64
2023/03/05 01:05:54;;;;;;;16.50;9.10;;;;;6.30;98837.00;;;;4932528;29;20531;-62
2023/03/05 01:08:21;;;;;;;14.55;8.18;;;;;6.30;98836.00;;;;4932419;29;20107;-63
2023/03/05 01:10:48;;;;;;;16.17;7.72;;;;;6.30;98833.00;;;;4931257;29;20048;-62
2023/03/05 01:13:14;;;;;;;13.25;8.27;;;;;6.30;98826.00;;;;4900638;29;20080;-63
2023/03/05 01:15:41;;;;;;;13.75;7.70;;;;;6.20;98820.00;;;;4932038;29;20048;-63
2023/03/05 01:18:07;;;;;;;16.33;7.97;;;;;6.20;98831.00;;;;4931777;29;20746;-63
2023/03/05 01:20:34;;;;;;;14.68;8.23;;;;;6.30;98822.00;;;;4916474;29;20036;-62
2023/03/05 01:23:01;;;;;;;12.43;8.35;;;;;6.20;98818.00;;;;4917441;29;20573;-64
2023/03/05 01:25:28;;;;;;;15.82;8.38;;;;;6.20;98825.00;;;;4931580;29;20080;-62
2023/03/05 01:27:55;;;;;;;13.82;7.93;;;;;6.30;98810.00;;;;4931549;29;20135;-64
2023/03/05 01:30:21;;;;;;;14.73;8.23;;;;;6.30;98818.00;;;;4916681;29;20048;-63
2023/03/05 01:32:48;;;;;;;13.68;7.82;;;;;6.30;98820.00;;;;4916894;29;20048;-63
2023/03/05 01:35:18;;;;;;;15.68;8.50;;;;;6.30;98811.00;;;;4916700;29;20095;-62
2023/03/05 01:37:45;;;;;;;12.75;8.15;;;;;6.30;98809.00;;;;4916858;29;20493;-62
2023/03/05 01:40:14;;;;;;;13.93;8.38;;;;;6.30;98806.00;;;;4916376;29;20115;-62
2023/03/05 01:42:54;;;;;;;12.23;8.13;;;;;6.30;98802.00;;;;4916811;29;20095;-62
2023/03/05 01:45:21;;;;;;;16.40;8.10;;;;;6.30;98806.00;;;;4916852;29;20048;-62
2023/03/05 01:47:47;;;;;;;16.35;9.00;;;;;6.30;98811.00;;;;4931292;29;20052;-62
2023/03/05 01:50:21;;;;;;;15.40;8.55;;;;;6.20;98806.00;;;;4930577;29;20080;-63
2023/03/05 01:52:54;;;;;;;16.25;8.73;;;;;6.20;98803.00;;;;4931323;29;20059;-62
2023/03/05 01:55:23;;;;;;;13.25;7.78;;;;;6.20;98805.00;;;;4931241;29;20115;-62
2023/03/05 01:57:56;;;;;;;16.83;8.48;;;;;6.20;98798.00;;;;4915940;29;20513;-62
2023/03/05 02:00:29;;;;;;;13.52;8.85;;;;;6.20;98798.00;;;;4915812;29;20099;-63
2023/03/05 02:03:01;;;;;;;17.17;8.73;;;;;6.20;98788.00;;;;4916401;29;20405;-62
2023/03/05 02:05:31;;;;;;;16.25;8.32;;;;;6.20;98785.00;;;;4916207;29;20044;-62
2023/03/05 02:07:59;;;;;;;12.20;7.90;;;;;6.30;98785.00;;;;4899386;29;20090;-62
2023/03/05 02:10:33;;;;;;;14.35;8.73;;;;;6.30;98780.00;;;;4930004;29;20137;-61
2023/03/05 02:13:05;;;;;;;15.70;7.78;;;;;6.30;98774.00;;;;4915085;29;20048;-62
2023/03/05 02:15:32;;;;;;;14.23;7.85;;;;;6.30;98784.00;;;;4916295;29;20065;-63
2023/03/05 02:18:00;;;;;;;14.02;8.52;;;;;6.30;98773.00;;;;4914761;29;20107;-64
2023/03/05 02:20:30;;;;;;;14.82;8.18;;;;;6.40;98770.00;;;;4930039;29;20056;-63
2023/03/05 02:22:57;;;;;;;14.80;8.10;;;;;6.40;98768.00;;;;4916273;29;20127;-62
2023/03/05 02:25:28;;;;;;;15.68;9.23;;;;;6.30;98758.00;;;;4914965;29;20079;-62
2023/03/05 02:28:24;;;;;;;16.75;8.52;;;;;6.30;98765.00;;;;4930586;29;20052;-62
2023/03/05 02:30:51;;;;;;;13.88;8.48;;;;;6.10;98753.00;;;;4887122;29;20051;-62
2023/03/05 02:33:18;;;;;;;14.02;8.18;;;;;6.10;98757.00;;;;4916081;29;20505;-62
2023/03/05 02:35:46;;;;;;;15.00;7.95;;;;;6.20;98756.00;;;;4912817;29;20563;-61
2023/03/05 02:38:15;;;;;;;16.92;8.30;;;;;6.30;98757.00;;;;4914666;29;20055;-63
2023/03/05 02:40:42;;;;;;;13.75;8.02;;;;;6.30;98755.00;;;;4898263;29;20108;-62
2023/03/05 02:43:09;;;;;;;14.30;7.85;;;;;6.30;98747.00;;;;4930745;29;20048;-62
2023/03/05 02:45:37;;;;;;;13.93;8.52;;;;;6.30;98749.00;;;;4915947;29;20047;-62
2023/03/05 02:48:03;;;;;;;16.00;8.02;;;;;6.30;98741.00;;;;4914885;29;20056;-63
2023/03/05 02:50:31;;;;;;;15.60;8.38;;;;;6.30;98743.00;;;;4915218;29;20044;-63
2023/03/05 02:52:57;;;;;;;15.48;8.65;;;;;6.30;98742.00;;;;4915052;29;20056;-63
2023/03/05 02:55:24;;;;;;;14.73;8.48;;;;;6.30;98734.00;;;;4934681;29;20056;-62
2023/03/05 02:57:50;;;;;;;15.77;8.52;;;;;6.40;98736.00;;;;4922463;29;20052;-62
2023/03/05 03:00:17;;;;;;;15.93;7.90;;;;;6.30;98732.00;;;;4932164;29;20461;-61
2023/03/05 03:02:43;;;;;;;16.25;8.60;;;;;6.20;98736.00;;;;4930441;29;20044;-62
2023/03/05 03:05:10;;;;;;;14.15;8.35;;;;;6.20;98731.00;;;;4914549;29;20048;-62
2023/03/05 03:07:37;;;;;;;15.55;8.25;;;;;6.20;98723.00;;;;4915924;29;20052;-60
2023/03/05 03:10:04;;;;;;;12.75;8.23;;;;;6.20;98717.00;;;;4917877;29;20437;-61
2023/03/05 03:12:31;;;;;;;13.95;8.30;;;;;6.20;98725.00;;;;4919243;29;20464;-61
2023/03/05 03:14:59;;;;;;;11.68;7.75;;;;;6.20;98720.00;;;;4918249;29;20052;-62
2023/03/05 03:17:26;;;;;;;11.70;7.30;;;;;6.20;98724.00;;;;4918267;29;20446;-62
2023/03/05 03:19:52;;;;;;;16.27;8.23;;;;;6.10;98718.00;;;;4917722;29;20097;-62
2023/03/05 03:22:19;;;;;;;12.98;8.05;;;;;6.00;98714.00;;;;4919201;29;20048;-63
2023/03/05 03:24:45;;;;;;;15.55;8.27;;;;;6.00;98703.00;;;;4919198;29;20127;-62
2023/03/05 03:27:12;;;;;;;15.65;8.10;;;;;5.90;98705.00;;;;4919140;29;20460;-62
2023/03/05 03:29:38;;;;;;;13.20;8.63;;;;;5.90;98705.00;;;;4918613;29;20052;-63
2023/03/05 03:32:05;;;;;;;16.60;8.82;;;;;5.90;98699.00;;;;4919274;29;20489;-63
2023/03/05 03:34:31;;;;;;;17.00;9.02;;;;;6.00;98701.00;;;;4902218;29;20058;-61
2023/03/05 03:36:58;;;;;;;11.63;7.97;;;;;6.00;98702.00;;;;4919281;29;20453;-63
2023/03/05 03:39:24;;;;;;;12.38;7.97;;;;;6.00;98690.00;;;;4918845;29;20174;-63
2023/03/05 03:41:52;;;;;;;12.55;7.88;;;;;6.00;98695.00;;;;4917557;29;20064;-63
2023/03/05 03:44:20;;;;;;;16.90;8.45;;;;;6.10;98693.00;;;;4918920;29;20094;-63
2023/03/05 03:46:48;;;;;;;15.80;8.52;;;;;6.10;98684.00;;;;4918909;29;20112;-61
2023/03/05 03:49:23;;;;;;;12.52;7.95;;;;;6.10;98686.00;;;;4918915;29;20044;-61
2023/03/05 03:51:53;;;;;;;15.98;8.82;;;;;5.90;98682.00;;;;4918435;29;20449;-61
2023/03/05 03:54:20;;;;;;;14.73;9.73;;;;;5.90;98682.00;;;;4918920;29;20067;-62
2023/03/05 03:56:47;;;;;;;14.45;8.20;;;;;5.90;98687.00;;;;4918711;29;20565;-62
2023/03/05 03:59:13;;;;;;;15.10;9.02;;;;;6.00;98678.00;;;;4918614;29;20119;-62
2023/03/05 04:01:40;;;;;;;15.68;8.70;;;;;6.00;98682.00;;;;4918162;29;20624;-63
2023/03/05 04:04:07;;;;;;;14.25;8.27;;;;;5.90;98681.00;;;;4918741;29;20044;-63
2023/03/05 04:06:34;;;;;;;14.98;9.52;;;;;5.90;98687.00;;;;4918714;29;20047;-63
2023/03/05 04:09:01;;;;;;;14.02;8.55;;;;;5.90;98687.00;;;;4918651;29;20054;-62
2023/03/05 04:11:27;;;;;;;14.82;8.85;;;;;5.90;98684.00;;;;4917988;29;20489;-61
2023/03/05 04:13:54;;;;;;;14.00;8.35;;;;;5.90;98683.00;;;;4918622;29;20048;-61
2023/03/05 04:16:21;;;;;;;13.95;8.43;;;;;6.00;98685.00;;;;4919150;29;20052;-61
2023/03/05 04:18:47;;;;;;;17.13;9.43;;;;;5.90;98680.00;;;;4917931;29;20048;-63
2023/03/05 04:21:14;;;;;;;12.48;8.43;;;;;5.90;98675.00;;;;4917395;29;20044;-63
2023/03/05 04:23:40;;;;;;;17.40;8.98;;;;;6.00;98680.00;;;;4901655;29;20053;-63
2023/03/05 04:26:07;;;;;;;17.80;9.25;;;;;6.00;98679.00;;;;4918450;29;20135;-61
2023/03/05 04:28:34;;;;;;;13.30;8.05;;;;;6.00;98675.00;;;;4918448;29;20040;-63
2023/03/05 04:31:02;;;;;;;12.40;8.60;;;;;6.10;98677.00;;;;4917570;29;20051;-63
2023/03/05 04:33:28;;;;;;;13.95;7.97;;;;;6.10;98668.00;;;;4918526;29;20473;-63
2023/03/05 04:35:55;;;;;;;14.60;8.35;;;;;6.10;98661.00;;;;4918458;29;20448;-64
2023/03/05 04:38:21;;;;;;;13.68;8.43;;;;;6.00;98667.00;;;;4917241;29;20060;-62
2023/03/05 04:40:48;;;;;;;16.25;10.15;;;;;5.90;98666.00;;;;4916624;29;20412;-63
2023/03/05 04:43:14;;;;;;;12.57;8.15;;;;;5.90;98667.00;;;;4918082;29;20501;-63
2023/03/05 04:45:42;;;;;;;13.05;8.15;;;;;5.80;98670.00;;;;4901268;29;20056;-62
2023/03/05 04:48:10;;;;;;;13.27;8.07;;;;;5.70;98665.00;;;;4918067;29;20072;-62
2023/03/05 04:50:36;;;;;;;15.20;8.70;;;;;5.70;98665.00;;;;4931846;29;20068;-61
2023/03/05 04:53:03;;;;;;;14.70;7.95;;;;;5.70;98669.00;;;;4918167;29;20047;-63
2023/03/05 04:55:30;;;;;;;13.73;8.55;;;;;5.70;98664.00;;;;4917877;29;20067;-62
2023/03/05 04:57:57;;;;;;;15.20;8.85;;;;;5.80;98665.00;;;;4917588;29;20052;-63
2023/03/05 05:00:24;;;;;;;14.07;8.20;;;;;5.80;98661.00;;;;4915826;29;20092;-63
2023/03/05 05:02:51;;;;;;;17.23;8.82;;;;;5.70;98661.00;;;;4917509;29;20040;-62
2023/03/05 05:05:21;;;;;;;18.50;8.45;;;;;5.60;98656.00;;;;4917660;29;20489;-63
2023/03/05 05:07:47;;;;;;;14.38;9.05;;;;;5.60;98658.00;;;;4917510;29;20495;-62
2023/03/05 05:10:15;;;;;;;14.93;8.68;;;;;5.40;98655.00;;;;4915722;29;20044;-60
2023/03/05 05:12:42;;;;;;;16.02;8.73;;;;;5.40;98654.00;;;;4916858;29;20497;-64
2023/03/05 05:15:10;;;;;;;14.45;8.40;;;;;5.40;98655.00;;;;4917269;29;20051;-62
2023/03/05 05:17:37;;;;;;;15.13;8.90;;;;;5.40;98656.00;;;;4916175;29;20052;-64
2023/03/05 05:20:07;;;;;;;13.35;8.38;;;;;5.40;98651.00;;;;4916619;29;20044;-62
2023/03/05 05:22:34;;;;;;;14.95;8.68;;;;;5.50;98649.00;;;;4917138;29;20056;-62
2023/03/05 05:25:01;;;;;;;15.43;9.20;;;;;5.60;98639.00;;;;4917173;29;20425;-63
2023/03/05 05:27:27;;;;;;;14.90;9.38;;;;;5.60;98646.00;;;;4917094;29;20501;-63
2023/03/05 05:29:53;;;;;;;19.23;9.95;;;;;5.70;98644.00;;;;4915253;29;20052;-62
2023/03/05 05:32:22;;;;;;;17.77;9.20;;;;;5.60;98651.00;;;;4915854;29;20072;-62
2023/03/05 05:34:56;;;;;;;19.10;10.30;;;;;5.60;98643.00;;;;4916813;29;20047;-65
2023/03/05 05:37:24;;;;;;;17.88;9.50;;;;;5.70;98645.00;;;;4915618;29;20521;-62
2023/03/05 05:39:51;;;;;;;14.40;8.95;;;;;5.70;98642.00;;;;4916145;29;20040;-63
2023/03/05 05:42:20;;;;;;;18.40;9.48;;;;;5.70;98643.00;;;;4915484;29;20052;-63
2023/03/05 05:44:46;;;;;;;15.40;9.23;;;;;5.70;98648.00;;;;4915648;29;20142;-62
2023/03/05 05:47:14;;;;;;;13.85;8.57;;;;;5.70;98642.00;;;;4916675;29;20048;-63
2023/03/05 05:49:41;;;;;;;17.45;8.75;;;;;5.80;98640.00;;;;4915968;29;20658;-63
2023/03/05 05:52:08;;;;;;;14.30;8.88;;;;;5.90;98643.00;;;;4916509;29;20470;-63
2023/03/05 05:54:34;;;;;;;13.57;8.60;;;;;6.00;98635.00;;;;4916520;29;20052;-63
2023/03/05 05:57:00;;;;;;;16.35;9.57;;;;;6.00;98642.00;;;;4916563;29;20080;-63
2023/03/05 05:59:27;;;;;;;16.23;8.68;;;;;6.10;98633.00;;;;4914953;29;20055;-63
2023/03/05 06:01:54;;;;;;;16.63;8.52;;;;;6.00;98634.00;;;;4916248;29;20076;-62
2023/03/05 06:04:20;;;;;;;16.33;9.05;;;;;6.00;98627.00;;;;4915352;29;20044;-63
2023/03/05 06:06:47;;;;;;;15.70;9.35;;;;;5.80;98622.00;;;;4916355;29;20458;-63
2023/03/05 06:09:14;;;;;;;15.80;9.23;;;;;5.70;98622.00;;;;4916311;29;20107;-63
2023/03/05 06:11:40;;;;;;;14.40;9.43;;;;;5.60;98622.00;;;;4915619;29;20504;-63
2023/03/05 06:14:07;;;;;;;17.35;9.05;;;;;5.50;98621.00;;;;4916225;29;20044;-63
2023/03/05 06:16:34;;;;;;;19.05;9.63;;;;;5.60;98626.00;;;;4916408;29;20044;-62
2023/03/05 06:19:03;;;;;;;17.88;8.73;;;;;5.80;98626.00;;;;4914814;29;20409;-61
2023/03/05 06:21:30;;;;;;;14.75;8.90;;;;;5.70;98629.00;;;;4930006;29;20040;-62
2023/03/05 06:23:57;;;;;;;17.00;9.35;;;;;5.70;98619.00;;;;4916262;29;20048;-62
2023/03/05 06:26:24;;;;;;;13.07;8.88;;;;;5.70;98626.00;;;;4916111;29;20052;-62
2023/03/05 06:28:51;;;;;;;15.55;9.98;;;;;5.80;98625.00;;;;4915999;29;20051;-62
2023/03/05 06:31:26;;;;;;;18.23;9.70;;;;;5.90;98620.00;;;;4915406;29;20044;-62
2023/03/05 06:33:55;;;;;;;19.70;13.20;;;;;5.90;98630.00;;;;4915028;29;20056;-61
2023/03/05 06:36:23;;;;;;;15.75;8.23;;;;;5.90;98627.00;;;;4916148;29;20048;-62
2023/03/05 06:38:51;;;;;;;15.13;9.00;;;;;5.90;98622.00;;;;4915464;29;20502;-62
2023/03/05 06:41:21;;;;;;;16.85;8.60;;;;;5.90;98621.00;;;;4914723;29;20134;-63
2023/03/05 06:43:48;;;;;;;19.08;10.05;;;;;5.80;98622.00;;;;4916372;29;20091;-62
2023/03/05 06:46:20;;;;;;;15.30;9.30;;;;;5.80;98630.00;;;;4919494;29;20040;-62
2023/03/05 06:48:48;;;;;;;13.70;8.65;;;;;5.80;98618.00;;;;4920433;29;20483;-61
2023/03/05 06:51:19;;;;;;;17.17;8.65;;;;;5.90;98622.00;;;;4923834;29;20052;-62
2023/03/05 06:53:46;;;;;;;12.30;8.02;;;;;6.00;98627.00;;;;4927380;29;20103;-62
2023/03/05 06:56:16;;;;;;;12.18;7.43;;;;;6.00;98633.00;;;;4924117;29;20064;-62
2023/03/05 06:58:45;;;;;;;11.48;8.00;;;;;6.10;98625.00;;;;4921446;29;20511;-62
2023/03/05 07:01:12;;;;;;;16.70;9.23;;;;;6.20;98628.00;;;;4921048;29;20076;-61
2023/03/05 07:03:40;;;;;;;16.75;8.75;;;;;6.30;98632.00;;;;4921460;29;20099;-63
2023/03/05 07:06:10;;;;;;;14.88;8.90;;;;;6.30;98627.00;;;;4920687;29;20457;-63
2023/03/05 07:08:37;;;;;;;20.10;9.38;;;;;6.20;98630.00;;;;4919309;29;20052;-63
2023/03/05 07:11:18;;;;;;;17.80;8.90;;;;;6.20;98627.00;;;;4920050;29;20075;-63
2023/03/05 07:13:46;;;;;;;15.13;8.02;;;;;6.20;98623.00;;;;4920172;29;20088;-61
2023/03/05 07:16:15;;;;;;;17.38;8.88;;;;;6.30;98620.00;;;;4920962;29;20060;-62
2023/03/05 07:18:42;;;;;;;16.00;9.07;;;;;6.30;98621.00;;;;4919750;29;20063;-62
2023/03/05 07:21:13;;;;;;;16.92;9.20;;;;;6.30;98619.00;;;;4918966;29;20050;-63
2023/03/05 07:23:40;;;;;;;13.73;8.20;;;;;6.40;98609.00;;;;4919527;29;20068;-62
2023/03/05 07:26:06;;;;;;;13.32;8.57;;;;;6.50;98617.00;;;;4919113;29;20095;-61
2023/03/05 07:28:33;;;;;;;11.85;8.18;;;;;6.50;98620.00;;;;4918242;29;20084;-62
2023/03/05 07:31:03;;;;;;;12.23;7.40;;;;;6.50;98619.00;;;;4918698;29;20067;-62
2023/03/05 07:33:30;;;;;;;13.70;7.60;;;;;6.60;98613.00;;;;4919148;29;20051;-63
2023/03/05 07:35:57;;;;;;;10.75;6.57;;;;;6.70;98615.00;;;;4919938;29;20080;-63
2023/03/05 07:38:24;;;;;;;11.18;6.65;;;;;6.80;98602.00;;;;4920397;29;20048;-63
2023/03/05 07:40:50;;;;;;;14.02;7.25;;;;;6.80;98610.00;;;;4917440;29;20055;-62
2023/03/05 07:43:17;;;;;;;9.82;6.63;;;;;6.90;98604.00;;;;4919099;29;20064;-61
2023/03/05 07:45:45;;;;;;;8.20;6.22;;;;;6.90;98610.00;;;;4933670;29;20059;-63
2023/03/05 07:48:14;;;;;;;13.40;6.90;;;;;6.90;98617.00;;;;4917963;29;20052;-63
2023/03/05 07:50:40;;;;;;;11.30;6.97;;;;;6.90;98612.00;;;;4917049;29;20052;-63
2023/03/05 07:53:08;;;;;;;13.32;6.30;;;;;6.90;98613.00;;;;4918498;29;20097;-62
2023/03/05 07:55:41;;;;;;;12.13;6.18;;;;;7.00;98612.00;;;;4916529;29;20052;-62
2023/03/05 07:58:07;;;;;;;9.38;6.07;;;;;6.90;98608.00;;;;4918999;29;20493;-62
2023/03/05 08:00:34;;;;;;;11.15;5.75;;;;;6.90;98606.00;;;;4918235;29;20071;-62
2023/03/05 08:03:00;;;;;;;9.20;6.05;;;;;6.90;98604.00;;;;4917929;29;20048;-63
2023/03/05 08:05:27;;;;;;;13.90;6.85;;;;;6.90;98600.00;;;;4933645;29;20433;-63
2023/03/05 08:07:53;;;;;;;9.15;6.57;;;;;6.90;98610.00;;;;4918808;29;20108;-62
2023/03/05 08:10:19;;;;;;;13.43;6.70;;;;;6.90;98605.00;;;;4918143;29;20469;-63
2023/03/05 08:12:46;;;;;;;13.30;6.30;;;;;6.80;98599.00;;;;4918547;29;20108;-63
2023/03/05 08:15:12;;;;;;;10.02;5.43;;;;;6.80;98598.00;;;;4918501;29;20048;-62
2023/03/05 08:17:39;;;;;;;10.27;6.07;;;;;6.80;98600.00;;;;4917779;29;20572;-62
2023/03/05 08:20:09;;;;;;;8.80;5.95;;;;;6.80;98598.00;;;;4916971;29;20054;-62
2023/03/05 08:22:36;;;;;;;9.15;5.47;;;;;6.80;98603.00;;;;4918952;29;20099;-61
2023/03/05 08:25:05;;;;;;;9.68;5.22;;;;;6.80;98593.00;;;;4919181;29;20094;-61
2023/03/05 08:27:31;;;;;;;13.35;5.50;;;;;6.70;98598.00;;;;4918777;29;20040;-62
2023/03/05 08:30:01;;;;;;;10.00;5.35;;;;;6.60;98600.00;;;;4918184;29;20051;-61
2023/03/05 08:32:28;;;;;;;8.38;5.30;;;;;6.60;98600.00;;;;4933084;29;20048;-62
2023/03/05 08:34:57;;;;;;;8.57;4.68;;;;;6.70;98600.00;;;;4917109;29;20040;-61
2023/03/05 08:37:24;;;;;;;8.27;4.28;;;;;6.60;98597.00;;;;4932686;29;20048;-62
2023/03/05 08:39:50;;;;;;;6.03;4.28;;;;;6.50;98594.00;;;;4917550;29;20493;-62
2023/03/05 08:42:16;;;;;;;8.38;4.53;;;;;6.50;98595.00;;;;4917973;29;20076;-62
2023/03/05 08:44:43;;;;;;;10.52;4.45;;;;;6.50;98588.00;;;;4918041;29;20055;-61
2023/03/05 08:47:10;;;;;;;7.85;3.70;;;;;6.60;98586.00;;;;4918322;29;20052;-62
2023/03/05 08:49:36;;;;;;;10.80;4.32;;;;;6.70;98587.00;;;;4917198;29;20052;-61
2023/03/05 08:52:03;;;;;;;6.18;3.33;;;;;6.70;98585.00;;;;4917882;29;20230;-62
2023/03/05 08:54:29;;;;;;;4.93;2.95;;;;;6.60;98586.00;;;;4917925;29;20068;-60
2023/03/05 08:56:55;;;;;;;5.88;3.30;;;;;6.60;98579.00;;;;4916653;29;20052;-61
2023/03/05 08:59:22;;;;;;;4.40;2.92;;;;;6.50;98583.00;;;;4916552;29;20044;-62
2023/03/05 09:01:49;;;;;;;3.97;3.00;;;;;6.60;98581.00;;;;4917194;29;20497;-60
2023/03/05 09:04:15;;;;;;;5.45;3.60;;;;;6.70;98588.00;;;;4917550;29;20071;-62
2023/03/05 09:06:42;;;;;;;5.32;3.17;;;;;6.70;98583.00;;;;4917358;29;20052;-61
2023/03/05 09:09:08;;;;;;;4.15;3.22;;;;;6.70;98581.00;;;;4917794;29;20095;-62
2023/03/05 09:11:35;;;;;;;6.15;3.20;;;;;6.70;98571.00;;;;4916813;29;20052;-61
2023/03/05 09:14:03;;;;;;;4.10;2.60;;;;;6.70;98582.00;;;;4917281;29;20082;-62
2023/03/05 09:16:30;;;;;;;6.20;3.45;;;;;6.90;98580.00;;;;4917358;29;20055;-61
2023/03/05 09:18:58;;;;;;;4.45;3.03;;;;;7.00;98574.00;;;;4917097;29;20420;-61
2023/03/05 09:21:24;;;;;;;5.70;2.90;;;;;7.10;98560.00;;;;4916454;29;20531;-61
2023/03/05 09:23:51;;;;;;;8.23;2.83;;;;;7.20;98569.00;;;;4917270;29;20084;-62
2023/03/05 09:26:18;;;;;;;6.63;3.70;;;;;7.20;98572.00;;;;4915812;29;20056;-61
2023/03/05 09:28:46;;;;;;;7.30;3.15;;;;;7.20;98574.00;;;;4915826;29;20044;-61
2023/03/05 09:31:13;;;;;;;5.03;2.50;;;;;7.10;98567.00;;;;4916221;29;20088;-62
2023/03/05 09:33:39;;;;;;;5.15;3.00;;;;;7.20;98575.00;;;;4917034;29;20142;-63
2023/03/05 09:36:17;;;;;;;5.15;2.80;;;;;7.10;98572.00;;;;4931510;29;20537;-61
2023/03/05 09:38:43;;;;;;;4.25;2.55;;;;;7.00;98569.00;;;;4917051;29;20056;-62
2023/03/05 09:41:26;;;;;;;4.00;2.47;;;;;7.00;98556.00;;;;4915243;29;20052;-62
2023/03/05 09:44:14;;;;;;;6.03;3.50;;;;;7.10;98553.00;;;;4916076;29;20052;-62
2023/03/05 09:46:47;;;;;;;3.88;3.17;;;;;7.10;98548.00;;;;4917367;29;20048;-61
2023/03/05 09:49:19;;;;;;;7.15;3.80;;;;;7.10;98553.00;;;;4917244;29;20190;-63
2023/03/05 09:51:50;;;;;;;4.80;3.03;;;;;7.10;98541.00;;;;4916747;29;20572;-61
2023/03/05 09:54:21;;;;;;;4.40;2.85;;;;;7.20;98543.00;;;;4904994;29;20076;-62
2023/03/05 09:56:55;;;;;;;4.20;3.17;;;;;7.30;98540.00;;;;4926657;29;20060;-61
2023/03/05 09:59:24;;;;;;;6.43;2.97;;;;;7.40;98531.00;;;;4905721;29;20063;-62
2023/03/05 10:01:52;;;;;;;8.02;3.42;;;;;7.40;98546.00;;;;4906442;29;20044;-61
2023/03/05 10:04:41;;;;;;;5.80;3.88;;;;;7.40;98527.00;;;;4905698;29;20104;-62
2023/03/05 10:07:15;;;;;;;4.85;3.58;;;;;7.50;98537.00;;;;4909632;29;20079;-61
2023/03/05 10:09:47;;;;;;;15.05;8.35;;;;;7.60;98526.00;;;;4906365;29;20051;-61
2023/03/05 10:12:26;;;;;;;5.38;3.55;;;;;7.60;98528.00;;;;4906134;29;20453;-61
2023/03/05 10:14:54;;;;;;;8.55;5.35;;;;;7.80;98534.00;;;;4906460;29;20078;-62
2023/03/05 10:17:38;;;;;;;5.03;3.58;;;;;7.80;98524.00;;;;4905653;29;20048;-61
2023/03/05 10:20:23;;;;;;;;;;;;;7.90;98521.00;;;;4904844;29;20044;-61
2023/03/05 10:23:05;;;;;;;;;;;;;8.00;98524.00;;;;4907531;29;19927;-61
2023/03/05 10:25:50;;;;;;;6.07;4.72;;;;;7.90;98522.00;;;;4903447;29;20392;-61
2023/03/05 10:28:24;;;;;;;41.35;16.25;;;;;7.90;98514.00;;;;4907203;29;20103;-62
2023/03/05 10:30:59;;;;;;;12.18;5.53;;;;;7.90;98523.00;;;;4910899;29;20088;-62
2023/03/05 10:33:41;;;;;;;7.75;4.13;;;;;8.00;98518.00;;;;4916335;29;20071;-61
2023/03/05 10:36:15;;;;;;;9.52;6.05;;;;;8.00;98515.00;;;;4915097;29;20060;-61
2023/03/05 10:39:13;;;;;;;10.98;5.57;;;;;8.00;98516.00;;;;4916227;29;20049;-62
2023/03/05 10:42:01;;;;;;;7.35;4.32;;;;;8.00;98505.00;;;;4897046;29;20056;-61
2023/03/05 10:44:30;;;;;;;7.57;4.43;;;;;8.00;98517.00;;;;4897249;29;20044;-61
2023/03/05 10:46:59;;;;;;;28.73;14.15;;;;;7.80;98505.00;;;;4897162;29;20097;-61
2023/03/05 10:49:31;;;;;;;10.10;6.13;;;;;7.90;98497.00;;;;4896859;29;20081;-62
2023/03/05 10:52:05;;;;;;;8.90;5.50;;;;;7.90;98503.00;;;;4897270;29;20048;-60
2023/03/05 10:54:34;;;;;;;7.13;4.45;;;;;8.00;98498.00;;;;4897783;29;20447;-60
2023/03/05 10:57:03;;;;;;;4.60;3.78;;;;;8.10;98486.00;;;;4900783;29;20100;-60
2023/03/05 10:59:31;;;;;;;7.95;5.35;;;;;8.10;98490.00;;;;4901379;29;20051;-60
2023/03/05 11:02:04;;;;;;;19.13;10.43;;;;;8.20;98486.00;;;;4907711;29;20127;-61
2023/03/05 11:04:35;;;;;;;6.78;4.57;;;;;8.20;98491.00;;;;4930283;29;20044;-61
2023/03/05 11:07:26;;;;;;;6.28;4.50;;;;;8.00;98489.00;;;;4914360;29;20052;-59
2023/03/05 11:09:59;;;;;;;3.47;2.80;;;;;7.90;98477.00;;;;4914052;29;20098;-59
2023/03/05 11:12:26;;;;;;;5.10;3.42;;;;;7.90;98475.00;;;;4915855;29;20047;-61
2023/03/05 11:15:05;;;;;;;6.60;3.63;;;;;8.00;98484.00;;;;4914460;29;20513;-61
2023/03/05 11:17:43;;;;;;;5.68;3.70;;;;;8.00;98477.00;;;;4915574;29;20059;-60
2023/03/05 11:20:28;;;;;;;6.60;4.00;;;;;8.00;98473.00;;;;4915037;29;20486;-60
2023/03/05 11:23:03;;;;;;;8.75;4.55;;;;;8.00;98476.00;;;;4915688;29;20048;-61
2023/03/05 11:25:31;;;;;;;6.05;3.75;;;;;8.00;98480.00;;;;4915663;29;20093;-61
2023/03/05 11:27:59;;;;;;;8.23;4.50;;;;;7.90;98472.00;;;;4914273;29;20597;-62
2023/03/05 11:30:32;;;;;;;7.97;4.88;;;;;7.90;98465.00;;;;4916796;29;20132;-61
2023/03/05 11:33:19;;;;;;;11.38;4.30;;;;;7.90;98467.00;;;;4919118;29;20062;-61
2023/03/05 11:35:47;;;;;;;6.80;4.20;;;;;7.90;98462.00;;;;4919635;29;20082;-62
2023/03/05 11:38:19;;;;;;;5.97;3.97;;;;;7.80;98460.00;;;;4919003;29;20094;-61
2023/03/05 11:40:47;;;;;;;6.47;4.55;;;;;7.90;98462.00;;;;4918448;29;20048;-61
2023/03/05 11:43:16;;;;;;;6.78;4.40;;;;;7.80;98459.00;;;;4919246;29;20095;-62
2023/03/05 11:45:44;;;;;;;11.98;6.35;;;;;7.70;98455.00;;;;4919350;29;20055;-60
2023/03/05 11:48:19;;;;;;;5.50;3.55;;;;;7.70;98459.00;;;;4919618;29;20056;-60
2023/03/05 11:50:53;;;;;;;6.28;3.97;;;;;7.70;98445.00;;;;4918717;29;20055;-58
2023/03/05 11:53:24;;;;;;;6.05;4.07;;;;;7.70;98442.00;;;;4919727;29;20099;-59
2023/03/05 11:56:30;;;;;;;10.88;5.55;;;;;7.70;98448.00;;;;4919217;29;20076;-60
2023/03/05 11:59:03;;;;;;;9.15;5.30;;;;;7.70;98438.00;;;;4918298;29;20060;-58
2023/03/05 12:01:34;;;;;;;8.23;4.95;;;;;7.70;98439.00;;;;4918669;29;20048;-61
2023/03/05 12:04:03;;;;;;;8.30;4.88;;;;;7.60;98436.00;;;;4918262;29;20128;-60
2023/03/05 12:06:41;;;;;;;6.85;3.95;;;;;7.70;98423.00;;;;4919270;29;20501;-60
2023/03/05 12:09:29;;;;;;;6.45;4.18;;;;;7.80;98427.00;;;;4919019;29;20108;-59
2023/03/05 12:12:05;;;;;;;9.52;5.18;;;;;7.90;98412.00;;;;4918896;29;20044;-59
2023/03/05 12:14:59;;;;;;;9.68;5.75;;;;;8.00;98415.00;;;;4918747;29;20126;-59
2023/03/05 12:18:07;;;;;;;5.88;4.38;;;;;8.00;98402.00;;;;4918766;29;20053;-58
2023/03/05 12:20:44;;;;;;;6.43;4.32;;;;;8.00;98405.00;;;;4910580;29;20123;-59
2023/03/05 12:23:14;;;;;;;12.48;7.20;;;;;7.90;98405.00;;;;4918457;29;20044;-59
2023/03/05 12:25:40;;;;;;;7.80;4.13;;;;;7.90;98396.00;;;;4918333;29;20373;-61
2023/03/05 12:28:14;;;;;;;12.82;6.05;;;;;7.90;98390.00;;;;4918274;29;20050;-59
2023/03/05 12:30:40;;;;;;;8.17;4.77;;;;;7.90;98389.00;;;;4917744;29;20564;-60
2023/03/05 12:33:42;;;;;;;11.77;5.78;;;;;7.80;98389.00;;;;4918331;29;20387;-61